sensor_id;sensor_type;location;lat;lon;timestamp;P1;durP1;ratioP1;P2;durP2;ratioP2
21543;SDS011;10933;50.754;11.508;2024-03-08T00:02:03;42.07;;;24.63;;
21543;SDS011;10933;50.754;11.508;2024-03-08T00:04:29;39.13;;;24.90;;
21543;SDS011;10933;50.754;11.508;2024-03-08T00:06:56;44.37;;;26.60;;
21543;SDS011;10933;50.754;11.508;2024-03-08T00:09:22;42.07;;;25.73;;
21543;SDS011;10933;50.754;11.508;2024-03-08T00:11:48;45.80;;;26.10;;
21543;SDS011;10933;50.754;11.508;2024-03-08T00:14:15;43.87;;;26.00;;
21543;SDS011;10933;50.754;11.508;2024-03-08T00:16:41;43.40;;;25.77;;
21543;SDS011;10933;50.754;11.508;2024-03-08T00:19:08;42.23;;;25.13;;
21543;SDS011;10933;50.754;11.508;2024-03-08T00:21:35;44.70;;;26.17;;
21543;SDS011;10933;50.754;11.508;2024-03-08T00:24:01;39.37;;;25.07;;
21543;SDS011;10933;50.754;11.508;2024-03-08T00:26:27;45.37;;;25.50;;
21543;SDS011;10933;50.754;11.508;2024-03-08T00:28:55;48.03;;;26.20;;
21543;SDS011;10933;50.754;11.508;2024-03-08T00:31:21;43.80;;;25.23;;
21543;SDS011;10933;50.754;11.508;2024-03-08T00:33:47;51.43;;;26.47;;
21543;SDS011;10933;50.754;11.508;2024-03-08T00:36:13;46.00;;;26.27;;
21543;SDS011;10933;50.754;11.508;2024-03-08T00:38:39;51.07;;;27.43;;
21543;SDS011;10933;50.754;11.508;2024-03-08T00:41:05;54.67;;;27.83;;
21543;SDS011;10933;50.754;11.508;2024-03-08T00:43:32;57.43;;;27.97;;
21543;SDS011;10933;50.754;11.508;2024-03-08T00:45:59;49.03;;;27.07;;
21543;SDS011;10933;50.754;11.508;2024-03-08T00:48:26;43.83;;;26.67;;
21543;SDS011;10933;50.754;11.508;2024-03-08T00:50:52;48.77;;;27.10;;
21543;SDS011;10933;50.754;11.508;2024-03-08T00:53:19;50.97;;;28.33;;
21543;SDS011;10933;50.754;11.508;2024-03-08T00:55:45;50.50;;;27.70;;
21543;SDS011;10933;50.754;11.508;2024-03-08T00:58:11;45.07;;;26.50;;
21543;SDS011;10933;50.754;11.508;2024-03-08T01:00:38;45.30;;;26.60;;
21543;SDS011;10933;50.754;11.508;2024-03-08T01:03:04;53.40;;;26.93;;
21543;SDS011;10933;50.754;11.508;2024-03-08T01:05:31;42.30;;;25.73;;
21543;SDS011;10933;50.754;11.508;2024-03-08T01:07:58;39.47;;;25.00;;
21543;SDS011;10933;50.754;11.508;2024-03-08T01:10:24;42.53;;;25.80;;
21543;SDS011;10933;50.754;11.508;2024-03-08T01:12:52;45.60;;;25.63;;
21543;SDS011;10933;50.754;11.508;2024-03-08T01:15:19;44.90;;;26.43;;
21543;SDS011;10933;50.754;11.508;2024-03-08T01:17:45;48.50;;;25.67;;
21543;SDS011;10933;50.754;11.508;2024-03-08T01:20:11;47.87;;;26.57;;
21543;SDS011;10933;50.754;11.508;2024-03-08T01:22:38;42.27;;;25.83;;
21543;SDS011;10933;50.754;11.508;2024-03-08T01:25:05;47.03;;;25.73;;
21543;SDS011;10933;50.754;11.508;2024-03-08T01:27:33;46.30;;;25.13;;
21543;SDS011;10933;50.754;11.508;2024-03-08T01:30:00;43.90;;;24.97;;
21543;SDS011;10933;50.754;11.508;2024-03-08T01:32:26;49.27;;;25.70;;
21543;SDS011;10933;50.754;11.508;2024-03-08T01:34:52;43.30;;;25.83;;
21543;SDS011;10933;50.754;11.508;2024-03-08T01:37:18;50.20;;;26.13;;
21543;SDS011;10933;50.754;11.508;2024-03-08T01:39:45;49.67;;;25.60;;
21543;SDS011;10933;50.754;11.508;2024-03-08T01:42:11;42.80;;;24.27;;
21543;SDS011;10933;50.754;11.508;2024-03-08T01:44:40;43.87;;;24.97;;
21543;SDS011;10933;50.754;11.508;2024-03-08T01:47:06;45.23;;;25.67;;
21543;SDS011;10933;50.754;11.508;2024-03-08T01:49:33;51.93;;;27.13;;
21543;SDS011;10933;50.754;11.508;2024-03-08T01:51:59;58.23;;;27.07;;
21543;SDS011;10933;50.754;11.508;2024-03-08T01:54:25;45.23;;;26.63;;
21543;SDS011;10933;50.754;11.508;2024-03-08T01:56:52;45.73;;;26.73;;
21543;SDS011;10933;50.754;11.508;2024-03-08T01:59:18;45.90;;;27.10;;
21543;SDS011;10933;50.754;11.508;2024-03-08T02:01:45;47.30;;;25.43;;
21543;SDS011;10933;50.754;11.508;2024-03-08T02:04:11;45.37;;;25.93;;
21543;SDS011;10933;50.754;11.508;2024-03-08T02:06:37;49.73;;;26.03;;
21543;SDS011;10933;50.754;11.508;2024-03-08T02:09:03;42.53;;;25.37;;
21543;SDS011;10933;50.754;11.508;2024-03-08T02:11:36;48.93;;;24.97;;
21543;SDS011;10933;50.754;11.508;2024-03-08T02:14:02;45.07;;;24.87;;
21543;SDS011;10933;50.754;11.508;2024-03-08T02:16:31;47.87;;;25.80;;
21543;SDS011;10933;50.754;11.508;2024-03-08T02:18:58;46.87;;;26.03;;
21543;SDS011;10933;50.754;11.508;2024-03-08T02:21:25;45.90;;;26.30;;
21543;SDS011;10933;50.754;11.508;2024-03-08T02:23:51;48.47;;;25.70;;
21543;SDS011;10933;50.754;11.508;2024-03-08T02:26:17;51.80;;;27.17;;
21543;SDS011;10933;50.754;11.508;2024-03-08T02:28:44;48.57;;;26.40;;
21543;SDS011;10933;50.754;11.508;2024-03-08T02:31:11;53.43;;;26.17;;
21543;SDS011;10933;50.754;11.508;2024-03-08T02:33:37;58.00;;;28.50;;
21543;SDS011;10933;50.754;11.508;2024-03-08T02:36:04;48.53;;;26.10;;
21543;SDS011;10933;50.754;11.508;2024-03-08T02:38:31;57.10;;;27.87;;
21543;SDS011;10933;50.754;11.508;2024-03-08T02:40:58;44.40;;;25.97;;
21543;SDS011;10933;50.754;11.508;2024-03-08T02:43:24;52.10;;;27.77;;
21543;SDS011;10933;50.754;11.508;2024-03-08T02:45:50;55.10;;;27.67;;
21543;SDS011;10933;50.754;11.508;2024-03-08T02:48:19;52.50;;;27.73;;
21543;SDS011;10933;50.754;11.508;2024-03-08T02:50:46;45.67;;;26.27;;
21543;SDS011;10933;50.754;11.508;2024-03-08T02:53:13;48.10;;;27.27;;
21543;SDS011;10933;50.754;11.508;2024-03-08T02:55:40;50.47;;;26.43;;
21543;SDS011;10933;50.754;11.508;2024-03-08T02:58:06;45.40;;;26.47;;
21543;SDS011;10933;50.754;11.508;2024-03-08T03:00:35;45.77;;;26.63;;
21543;SDS011;10933;50.754;11.508;2024-03-08T03:03:02;44.47;;;26.53;;
21543;SDS011;10933;50.754;11.508;2024-03-08T03:05:28;51.17;;;27.57;;
21543;SDS011;10933;50.754;11.508;2024-03-08T03:07:55;50.93;;;27.70;;
21543;SDS011;10933;50.754;11.508;2024-03-08T03:10:21;53.93;;;27.30;;
21543;SDS011;10933;50.754;11.508;2024-03-08T03:12:48;49.23;;;27.87;;
21543;SDS011;10933;50.754;11.508;2024-03-08T03:15:14;50.33;;;27.63;;
21543;SDS011;10933;50.754;11.508;2024-03-08T03:17:49;50.20;;;26.73;;
21543;SDS011;10933;50.754;11.508;2024-03-08T03:20:17;45.07;;;25.93;;
21543;SDS011;10933;50.754;11.508;2024-03-08T03:22:57;47.13;;;25.70;;
21543;SDS011;10933;50.754;11.508;2024-03-08T03:25:26;47.93;;;26.13;;
21543;SDS011;10933;50.754;11.508;2024-03-08T03:28:00;52.63;;;27.50;;
21543;SDS011;10933;50.754;11.508;2024-03-08T03:30:27;52.53;;;27.77;;
21543;SDS011;10933;50.754;11.508;2024-03-08T03:32:58;43.20;;;26.07;;
21543;SDS011;10933;50.754;11.508;2024-03-08T03:35:25;47.17;;;24.83;;
21543;SDS011;10933;50.754;11.508;2024-03-08T03:37:52;42.87;;;25.73;;
21543;SDS011;10933;50.754;11.508;2024-03-08T03:40:32;51.03;;;26.77;;
21543;SDS011;10933;50.754;11.508;2024-03-08T03:42:58;52.37;;;26.80;;
21543;SDS011;10933;50.754;11.508;2024-03-08T03:45:25;44.23;;;25.27;;
21543;SDS011;10933;50.754;11.508;2024-03-08T03:47:51;54.17;;;27.00;;
21543;SDS011;10933;50.754;11.508;2024-03-08T03:50:18;47.50;;;27.37;;
21543;SDS011;10933;50.754;11.508;2024-03-08T03:52:45;44.23;;;25.97;;
21543;SDS011;10933;50.754;11.508;2024-03-08T03:55:11;40.70;;;25.30;;
21543;SDS011;10933;50.754;11.508;2024-03-08T03:57:38;49.90;;;26.43;;
21543;SDS011;10933;50.754;11.508;2024-03-08T04:00:05;44.77;;;26.13;;
21543;SDS011;10933;50.754;11.508;2024-03-08T04:02:37;45.97;;;26.60;;
21543;SDS011;10933;50.754;11.508;2024-03-08T04:05:04;49.07;;;25.93;;
21543;SDS011;10933;50.754;11.508;2024-03-08T04:07:31;49.77;;;26.00;;
21543;SDS011;10933;50.754;11.508;2024-03-08T04:09:57;50.73;;;27.07;;
21543;SDS011;10933;50.754;11.508;2024-03-08T04:12:24;43.10;;;26.17;;
21543;SDS011;10933;50.754;11.508;2024-03-08T04:14:50;50.57;;;26.77;;
21543;SDS011;10933;50.754;11.508;2024-03-08T04:17:16;47.93;;;26.43;;
21543;SDS011;10933;50.754;11.508;2024-03-08T04:19:43;47.90;;;25.83;;
21543;SDS011;10933;50.754;11.508;2024-03-08T04:22:09;46.97;;;26.13;;
21543;SDS011;10933;50.754;11.508;2024-03-08T04:24:35;55.77;;;27.37;;
21543;SDS011;10933;50.754;11.508;2024-03-08T04:27:01;45.47;;;25.97;;
21543;SDS011;10933;50.754;11.508;2024-03-08T04:29:27;46.70;;;27.23;;
21543;SDS011;10933;50.754;11.508;2024-03-08T04:31:54;47.60;;;26.00;;
21543;SDS011;10933;50.754;11.508;2024-03-08T04:34:20;50.33;;;27.40;;
21543;SDS011;10933;50.754;11.508;2024-03-08T04:36:47;49.13;;;26.23;;
21543;SDS011;10933;50.754;11.508;2024-03-08T04:39:13;57.33;;;27.90;;
21543;SDS011;10933;50.754;11.508;2024-03-08T04:41:41;48.80;;;27.33;;
21543;SDS011;10933;50.754;11.508;2024-03-08T04:44:08;54.30;;;27.23;;
21543;SDS011;10933;50.754;11.508;2024-03-08T04:46:35;53.03;;;27.13;;
21543;SDS011;10933;50.754;11.508;2024-03-08T04:49:02;52.70;;;27.50;;
21543;SDS011;10933;50.754;11.508;2024-03-08T04:51:28;53.27;;;27.30;;
21543;SDS011;10933;50.754;11.508;2024-03-08T04:53:54;55.50;;;28.60;;
21543;SDS011;10933;50.754;11.508;2024-03-08T04:56:22;50.80;;;27.50;;
21543;SDS011;10933;50.754;11.508;2024-03-08T04:58:48;51.33;;;28.23;;
21543;SDS011;10933;50.754;11.508;2024-03-08T05:01:14;51.97;;;28.07;;
21543;SDS011;10933;50.754;11.508;2024-03-08T05:03:40;49.77;;;27.10;;
21543;SDS011;10933;50.754;11.508;2024-03-08T05:06:06;47.03;;;26.30;;
21543;SDS011;10933;50.754;11.508;2024-03-08T05:08:33;49.13;;;26.57;;
21543;SDS011;10933;50.754;11.508;2024-03-08T05:10:59;45.00;;;25.90;;
21543;SDS011;10933;50.754;11.508;2024-03-08T05:13:30;52.20;;;26.87;;
21543;SDS011;10933;50.754;11.508;2024-03-08T05:15:56;47.33;;;26.33;;
21543;SDS011;10933;50.754;11.508;2024-03-08T05:18:23;47.37;;;27.10;;
21543;SDS011;10933;50.754;11.508;2024-03-08T05:20:49;45.23;;;26.27;;
21543;SDS011;10933;50.754;11.508;2024-03-08T05:23:16;56.17;;;28.07;;
21543;SDS011;10933;50.754;11.508;2024-03-08T05:25:44;50.67;;;26.80;;
21543;SDS011;10933;50.754;11.508;2024-03-08T05:28:14;54.47;;;28.17;;
21543;SDS011;10933;50.754;11.508;2024-03-08T05:30:40;49.47;;;26.80;;
21543;SDS011;10933;50.754;11.508;2024-03-08T05:33:06;56.73;;;28.33;;
21543;SDS011;10933;50.754;11.508;2024-03-08T05:35:35;56.20;;;29.10;;
21543;SDS011;10933;50.754;11.508;2024-03-08T05:38:02;56.10;;;28.57;;
21543;SDS011;10933;50.754;11.508;2024-03-08T05:40:28;52.30;;;27.77;;
21543;SDS011;10933;50.754;11.508;2024-03-08T05:42:57;60.90;;;29.17;;
21543;SDS011;10933;50.754;11.508;2024-03-08T05:45:24;53.70;;;28.30;;
21543;SDS011;10933;50.754;11.508;2024-03-08T05:47:50;51.40;;;27.73;;
21543;SDS011;10933;50.754;11.508;2024-03-08T05:50:17;58.33;;;28.87;;
21543;SDS011;10933;50.754;11.508;2024-03-08T05:52:44;54.30;;;28.93;;
21543;SDS011;10933;50.754;11.508;2024-03-08T05:55:10;62.20;;;29.20;;
21543;SDS011;10933;50.754;11.508;2024-03-08T05:57:39;55.47;;;27.93;;
21543;SDS011;10933;50.754;11.508;2024-03-08T06:00:07;85.17;;;30.80;;
21543;SDS011;10933;50.754;11.508;2024-03-08T06:02:36;53.27;;;28.17;;
21543;SDS011;10933;50.754;11.508;2024-03-08T06:05:06;60.50;;;30.17;;
21543;SDS011;10933;50.754;11.508;2024-03-08T06:07:36;57.77;;;29.17;;
21543;SDS011;10933;50.754;11.508;2024-03-08T06:10:06;58.50;;;29.20;;
21543;SDS011;10933;50.754;11.508;2024-03-08T06:12:35;60.53;;;29.93;;
21543;SDS011;10933;50.754;11.508;2024-03-08T06:15:09;61.53;;;30.27;;
21543;SDS011;10933;50.754;11.508;2024-03-08T06:17:35;62.23;;;30.60;;
21543;SDS011;10933;50.754;11.508;2024-03-08T06:20:02;62.63;;;30.70;;
21543;SDS011;10933;50.754;11.508;2024-03-08T06:22:29;63.77;;;31.37;;
21543;SDS011;10933;50.754;11.508;2024-03-08T06:24:55;71.57;;;31.03;;
21543;SDS011;10933;50.754;11.508;2024-03-08T06:27:21;62.63;;;31.43;;
21543;SDS011;10933;50.754;11.508;2024-03-08T06:29:48;62.83;;;31.60;;
21543;SDS011;10933;50.754;11.508;2024-03-08T06:32:14;62.17;;;31.77;;
21543;SDS011;10933;50.754;11.508;2024-03-08T06:34:43;66.53;;;31.10;;
21543;SDS011;10933;50.754;11.508;2024-03-08T06:37:10;67.27;;;31.43;;
21543;SDS011;10933;50.754;11.508;2024-03-08T06:39:36;62.47;;;31.63;;
21543;SDS011;10933;50.754;11.508;2024-03-08T06:42:02;74.13;;;33.57;;
21543;SDS011;10933;50.754;11.508;2024-03-08T06:44:29;72.43;;;34.67;;
21543;SDS011;10933;50.754;11.508;2024-03-08T06:46:56;71.87;;;33.93;;
21543;SDS011;10933;50.754;11.508;2024-03-08T06:49:23;61.67;;;31.93;;
21543;SDS011;10933;50.754;11.508;2024-03-08T06:51:53;65.17;;;32.47;;
21543;SDS011;10933;50.754;11.508;2024-03-08T06:54:19;62.93;;;31.80;;
21543;SDS011;10933;50.754;11.508;2024-03-08T06:56:45;67.07;;;32.97;;
21543;SDS011;10933;50.754;11.508;2024-03-08T06:59:11;68.30;;;32.00;;
21543;SDS011;10933;50.754;11.508;2024-03-08T07:01:37;62.73;;;31.43;;
21543;SDS011;10933;50.754;11.508;2024-03-08T07:04:03;68.77;;;32.60;;
21543;SDS011;10933;50.754;11.508;2024-03-08T07:06:30;72.87;;;33.53;;
21543;SDS011;10933;50.754;11.508;2024-03-08T07:08:58;69.13;;;33.30;;
21543;SDS011;10933;50.754;11.508;2024-03-08T07:11:25;69.27;;;33.87;;
21543;SDS011;10933;50.754;11.508;2024-03-08T07:13:51;66.80;;;33.80;;
21543;SDS011;10933;50.754;11.508;2024-03-08T07:16:17;66.77;;;32.87;;
21543;SDS011;10933;50.754;11.508;2024-03-08T07:18:43;66.10;;;33.47;;
21543;SDS011;10933;50.754;11.508;2024-03-08T07:21:09;70.47;;;34.60;;
21543;SDS011;10933;50.754;11.508;2024-03-08T07:23:35;68.17;;;33.53;;
21543;SDS011;10933;50.754;11.508;2024-03-08T07:26:20;73.93;;;34.67;;
21543;SDS011;10933;50.754;11.508;2024-03-08T07:28:46;75.43;;;36.47;;
21543;SDS011;10933;50.754;11.508;2024-03-08T07:31:13;69.63;;;33.70;;
21543;SDS011;10933;50.754;11.508;2024-03-08T07:33:41;65.73;;;33.53;;
21543;SDS011;10933;50.754;11.508;2024-03-08T07:36:08;73.43;;;34.17;;
21543;SDS011;10933;50.754;11.508;2024-03-08T07:38:34;73.07;;;34.77;;
21543;SDS011;10933;50.754;11.508;2024-03-08T07:41:00;69.00;;;34.23;;
21543;SDS011;10933;50.754;11.508;2024-03-08T07:43:26;67.70;;;34.67;;
21543;SDS011;10933;50.754;11.508;2024-03-08T07:45:52;69.00;;;33.97;;
21543;SDS011;10933;50.754;11.508;2024-03-08T07:48:20;72.67;;;35.87;;
21543;SDS011;10933;50.754;11.508;2024-03-08T07:50:46;66.10;;;34.20;;
21543;SDS011;10933;50.754;11.508;2024-03-08T07:53:13;68.17;;;33.67;;
21543;SDS011;10933;50.754;11.508;2024-03-08T07:55:40;71.27;;;35.30;;
21543;SDS011;10933;50.754;11.508;2024-03-08T07:58:07;64.23;;;34.10;;
21543;SDS011;10933;50.754;11.508;2024-03-08T08:00:36;76.67;;;35.07;;
21543;SDS011;10933;50.754;11.508;2024-03-08T08:03:03;71.43;;;34.17;;
21543;SDS011;10933;50.754;11.508;2024-03-08T08:05:30;72.73;;;34.50;;
21543;SDS011;10933;50.754;11.508;2024-03-08T08:08:01;63.30;;;33.80;;
21543;SDS011;10933;50.754;11.508;2024-03-08T08:10:31;56.00;;;32.10;;
21543;SDS011;10933;50.754;11.508;2024-03-08T08:12:59;56.50;;;31.23;;
21543;SDS011;10933;50.754;11.508;2024-03-08T08:15:29;61.70;;;32.33;;
21543;SDS011;10933;50.754;11.508;2024-03-08T08:17:55;60.83;;;32.93;;
21543;SDS011;10933;50.754;11.508;2024-03-08T08:20:21;58.60;;;32.73;;
21543;SDS011;10933;50.754;11.508;2024-03-08T08:22:48;51.00;;;31.50;;
21543;SDS011;10933;50.754;11.508;2024-03-08T08:25:14;54.60;;;31.20;;
21543;SDS011;10933;50.754;11.508;2024-03-08T08:27:40;48.43;;;31.13;;
21543;SDS011;10933;50.754;11.508;2024-03-08T08:30:10;50.73;;;32.20;;
21543;SDS011;10933;50.754;11.508;2024-03-08T08:32:37;54.90;;;31.97;;
21543;SDS011;10933;50.754;11.508;2024-03-08T08:35:07;56.57;;;31.83;;
21543;SDS011;10933;50.754;11.508;2024-03-08T08:37:34;45.67;;;30.67;;
21543;SDS011;10933;50.754;11.508;2024-03-08T08:40:03;51.53;;;32.13;;
21543;SDS011;10933;50.754;11.508;2024-03-08T08:42:50;50.47;;;31.23;;
21543;SDS011;10933;50.754;11.508;2024-03-08T08:45:18;48.27;;;29.90;;
21543;SDS011;10933;50.754;11.508;2024-03-08T08:47:44;46.83;;;30.03;;
21543;SDS011;10933;50.754;11.508;2024-03-08T08:50:12;48.33;;;28.57;;
21543;SDS011;10933;50.754;11.508;2024-03-08T08:52:39;48.30;;;28.03;;
21543;SDS011;10933;50.754;11.508;2024-03-08T08:55:05;41.73;;;29.23;;
21543;SDS011;10933;50.754;11.508;2024-03-08T08:57:32;42.03;;;28.87;;
21543;SDS011;10933;50.754;11.508;2024-03-08T08:59:58;45.53;;;30.90;;
21543;SDS011;10933;50.754;11.508;2024-03-08T09:02:25;43.70;;;29.17;;
21543;SDS011;10933;50.754;11.508;2024-03-08T09:04:51;44.00;;;29.13;;
21543;SDS011;10933;50.754;11.508;2024-03-08T09:07:18;40.17;;;29.50;;
21543;SDS011;10933;50.754;11.508;2024-03-08T09:09:44;39.00;;;28.33;;
21543;SDS011;10933;50.754;11.508;2024-03-08T09:12:10;45.37;;;29.87;;
21543;SDS011;10933;50.754;11.508;2024-03-08T09:14:38;43.70;;;30.87;;
21543;SDS011;10933;50.754;11.508;2024-03-08T09:17:05;44.40;;;28.87;;
21543;SDS011;10933;50.754;11.508;2024-03-08T09:19:33;47.87;;;30.03;;
21543;SDS011;10933;50.754;11.508;2024-03-08T09:22:00;48.17;;;29.03;;
21543;SDS011;10933;50.754;11.508;2024-03-08T09:24:26;47.50;;;30.53;;
21543;SDS011;10933;50.754;11.508;2024-03-08T09:26:52;43.97;;;28.57;;
21543;SDS011;10933;50.754;11.508;2024-03-08T09:29:18;42.77;;;29.10;;
21543;SDS011;10933;50.754;11.508;2024-03-08T09:31:45;41.40;;;28.53;;
21543;SDS011;10933;50.754;11.508;2024-03-08T09:34:11;42.00;;;25.83;;
21543;SDS011;10933;50.754;11.508;2024-03-08T09:36:37;35.17;;;26.93;;
21543;SDS011;10933;50.754;11.508;2024-03-08T09:39:03;31.60;;;24.48;;
21543;SDS011;10933;50.754;11.508;2024-03-08T09:41:32;32.20;;;26.25;;
21543;SDS011;10933;50.754;11.508;2024-03-08T09:43:59;30.25;;;23.85;;
21543;SDS011;10933;50.754;11.508;2024-03-08T09:46:25;34.78;;;24.63;;
21543;SDS011;10933;50.754;11.508;2024-03-08T09:48:52;28.40;;;22.80;;
21543;SDS011;10933;50.754;11.508;2024-03-08T09:51:21;23.35;;;21.02;;
21543;SDS011;10933;50.754;11.508;2024-03-08T09:53:52;23.90;;;21.38;;
21543;SDS011;10933;50.754;11.508;2024-03-08T09:56:19;26.08;;;23.27;;
21543;SDS011;10933;50.754;11.508;2024-03-08T09:58:48;24.75;;;22.27;;
21543;SDS011;10933;50.754;11.508;2024-03-08T10:01:33;25.02;;;20.67;;
21543;SDS011;10933;50.754;11.508;2024-03-08T10:03:59;23.20;;;20.75;;
21543;SDS011;10933;50.754;11.508;2024-03-08T10:06:27;20.75;;;18.55;;
21543;SDS011;10933;50.754;11.508;2024-03-08T10:08:53;15.93;;;14.48;;
21543;SDS011;10933;50.754;11.508;2024-03-08T10:11:20;23.65;;;21.30;;
21543;SDS011;10933;50.754;11.508;2024-03-08T10:13:47;21.90;;;17.30;;
21543;SDS011;10933;50.754;11.508;2024-03-08T10:16:15;23.67;;;21.17;;
21543;SDS011;10933;50.754;11.508;2024-03-08T10:18:42;25.67;;;19.77;;
21543;SDS011;10933;50.754;11.508;2024-03-08T10:21:10;23.48;;;21.00;;
21543;SDS011;10933;50.754;11.508;2024-03-08T10:23:37;21.65;;;18.95;;
21543;SDS011;10933;50.754;11.508;2024-03-08T10:26:14;28.30;;;22.17;;
21543;SDS011;10933;50.754;11.508;2024-03-08T10:28:42;24.95;;;21.75;;
21543;SDS011;10933;50.754;11.508;2024-03-08T10:31:15;19.75;;;17.98;;
21543;SDS011;10933;50.754;11.508;2024-03-08T10:33:43;26.58;;;20.88;;
21543;SDS011;10933;50.754;11.508;2024-03-08T10:36:12;26.35;;;22.40;;
21543;SDS011;10933;50.754;11.508;2024-03-08T10:38:40;21.90;;;19.65;;
21543;SDS011;10933;50.754;11.508;2024-03-08T10:41:08;23.85;;;21.45;;
21543;SDS011;10933;50.754;11.508;2024-03-08T10:49:00;25.70;;;22.27;;
21543;SDS011;10933;50.754;11.508;2024-03-08T10:51:32;24.50;;;22.05;;
21543;SDS011;10933;50.754;11.508;2024-03-08T10:53:59;15.35;;;11.60;;
21543;SDS011;10933;50.754;11.508;2024-03-08T10:56:28;23.00;;;20.75;;
21543;SDS011;10933;50.754;11.508;2024-03-08T10:58:54;23.00;;;20.60;;
21543;SDS011;10933;50.754;11.508;2024-03-08T11:01:21;16.30;;;12.85;;
21543;SDS011;10933;50.754;11.508;2024-03-08T11:03:47;26.17;;;21.75;;
21543;SDS011;10933;50.754;11.508;2024-03-08T11:08:46;24.10;;;21.63;;
21543;SDS011;10933;50.754;11.508;2024-03-08T11:11:25;21.77;;;19.83;;
21543;SDS011;10933;50.754;11.508;2024-03-08T11:13:59;24.38;;;21.85;;
21543;SDS011;10933;50.754;11.508;2024-03-08T11:18:58;25.42;;;22.25;;
21543;SDS011;10933;50.754;11.508;2024-03-08T11:21:51;22.40;;;20.17;;
21543;SDS011;10933;50.754;11.508;2024-03-08T11:24:23;23.50;;;21.23;;
21543;SDS011;10933;50.754;11.508;2024-03-08T11:26:49;22.02;;;19.73;;
21543;SDS011;10933;50.754;11.508;2024-03-08T11:34:37;22.48;;;20.25;;
21543;SDS011;10933;50.754;11.508;2024-03-08T11:37:17;21.38;;;18.65;;
21543;SDS011;10933;50.754;11.508;2024-03-08T11:39:52;22.05;;;19.75;;
21543;SDS011;10933;50.754;11.508;2024-03-08T11:42:23;20.15;;;15.25;;
21543;SDS011;10933;50.754;11.508;2024-03-08T11:44:53;24.80;;;21.10;;
21543;SDS011;10933;50.754;11.508;2024-03-08T11:47:19;22.85;;;20.42;;
21543;SDS011;10933;50.754;11.508;2024-03-08T11:49:46;22.10;;;20.10;;
21543;SDS011;10933;50.754;11.508;2024-03-08T11:52:16;21.85;;;19.55;;
21543;SDS011;10933;50.754;11.508;2024-03-08T11:54:47;21.35;;;19.30;;
21543;SDS011;10933;50.754;11.508;2024-03-08T11:57:22;20.83;;;18.67;;
21543;SDS011;10933;50.754;11.508;2024-03-08T11:59:52;23.33;;;20.75;;
21543;SDS011;10933;50.754;11.508;2024-03-08T12:02:19;21.67;;;19.55;;
21543;SDS011;10933;50.754;11.508;2024-03-08T12:04:45;23.75;;;19.80;;
21543;SDS011;10933;50.754;11.508;2024-03-08T12:07:12;22.83;;;18.23;;
21543;SDS011;10933;50.754;11.508;2024-03-08T12:09:40;21.63;;;19.35;;
21543;SDS011;10933;50.754;11.508;2024-03-08T12:12:11;22.88;;;18.90;;
21543;SDS011;10933;50.754;11.508;2024-03-08T12:14:38;21.10;;;19.00;;
21543;SDS011;10933;50.754;11.508;2024-03-08T12:17:07;24.45;;;17.98;;
21543;SDS011;10933;50.754;11.508;2024-03-08T12:19:35;21.98;;;19.70;;
21543;SDS011;10933;50.754;11.508;2024-03-08T12:22:09;20.10;;;18.17;;
21543;SDS011;10933;50.754;11.508;2024-03-08T12:24:35;20.02;;;18.13;;
21543;SDS011;10933;50.754;11.508;2024-03-08T12:27:10;26.25;;;18.95;;
21543;SDS011;10933;50.754;11.508;2024-03-08T12:29:44;20.45;;;18.35;;
21543;SDS011;10933;50.754;11.508;2024-03-08T12:32:10;22.00;;;19.50;;
21543;SDS011;10933;50.754;11.508;2024-03-08T12:34:36;20.50;;;18.30;;
21543;SDS011;10933;50.754;11.508;2024-03-08T12:37:02;20.58;;;18.67;;
21543;SDS011;10933;50.754;11.508;2024-03-08T12:39:32;21.23;;;17.98;;
21543;SDS011;10933;50.754;11.508;2024-03-08T12:41:59;21.50;;;19.45;;
21543;SDS011;10933;50.754;11.508;2024-03-08T12:44:25;19.92;;;17.85;;
21543;SDS011;10933;50.754;11.508;2024-03-08T12:46:53;20.00;;;17.67;;
21543;SDS011;10933;50.754;11.508;2024-03-08T12:49:19;22.90;;;20.35;;
21543;SDS011;10933;50.754;11.508;2024-03-08T12:51:48;20.77;;;18.75;;
21543;SDS011;10933;50.754;11.508;2024-03-08T12:54:14;21.65;;;19.65;;
21543;SDS011;10933;50.754;11.508;2024-03-08T12:56:40;20.63;;;18.75;;
21543;SDS011;10933;50.754;11.508;2024-03-08T12:59:07;23.27;;;16.98;;
21543;SDS011;10933;50.754;11.508;2024-03-08T13:01:35;22.50;;;19.52;;
21543;SDS011;10933;50.754;11.508;2024-03-08T13:04:04;20.63;;;18.65;;
21543;SDS011;10933;50.754;11.508;2024-03-08T13:06:31;23.17;;;19.73;;
21543;SDS011;10933;50.754;11.508;2024-03-08T13:08:58;19.83;;;18.00;;
21543;SDS011;10933;50.754;11.508;2024-03-08T13:11:30;22.05;;;19.98;;
21543;SDS011;10933;50.754;11.508;2024-03-08T13:14:01;17.10;;;15.25;;
21543;SDS011;10933;50.754;11.508;2024-03-08T13:16:30;22.90;;;20.38;;
21543;SDS011;10933;50.754;11.508;2024-03-08T13:18:56;24.23;;;21.92;;
21543;SDS011;10933;50.754;11.508;2024-03-08T13:21:22;20.27;;;18.45;;
21543;SDS011;10933;50.754;11.508;2024-03-08T13:23:49;18.67;;;16.73;;
21543;SDS011;10933;50.754;11.508;2024-03-08T13:26:18;21.08;;;18.42;;
21543;SDS011;10933;50.754;11.508;2024-03-08T13:28:48;19.67;;;17.65;;
21543;SDS011;10933;50.754;11.508;2024-03-08T13:31:18;18.80;;;16.98;;
21543;SDS011;10933;50.754;11.508;2024-03-08T13:33:47;16.63;;;14.98;;
21543;SDS011;10933;50.754;11.508;2024-03-08T13:36:13;10.38;;;9.38;;
21543;SDS011;10933;50.754;11.508;2024-03-08T13:38:44;16.60;;;14.90;;
21543;SDS011;10933;50.754;11.508;2024-03-08T13:41:11;18.48;;;14.82;;
21543;SDS011;10933;50.754;11.508;2024-03-08T13:43:42;18.98;;;17.15;;
21543;SDS011;10933;50.754;11.508;2024-03-08T13:46:10;18.33;;;16.95;;
21543;SDS011;10933;50.754;11.508;2024-03-08T13:48:37;16.10;;;14.75;;
21543;SDS011;10933;50.754;11.508;2024-03-08T13:51:06;17.88;;;16.48;;
21543;SDS011;10933;50.754;11.508;2024-03-08T13:53:35;17.65;;;16.42;;
21543;SDS011;10933;50.754;11.508;2024-03-08T13:56:02;16.77;;;15.25;;
21543;SDS011;10933;50.754;11.508;2024-03-08T13:58:28;12.73;;;8.23;;
21543;SDS011;10933;50.754;11.508;2024-03-08T14:00:54;17.25;;;15.75;;
21543;SDS011;10933;50.754;11.508;2024-03-08T14:03:21;15.82;;;14.63;;
21543;SDS011;10933;50.754;11.508;2024-03-08T14:05:49;14.52;;;13.52;;
21543;SDS011;10933;50.754;11.508;2024-03-08T14:08:15;14.95;;;13.82;;
21543;SDS011;10933;50.754;11.508;2024-03-08T14:10:42;14.43;;;13.32;;
21543;SDS011;10933;50.754;11.508;2024-03-08T14:13:11;16.73;;;15.52;;
21543;SDS011;10933;50.754;11.508;2024-03-08T14:15:40;15.95;;;14.88;;
21543;SDS011;10933;50.754;11.508;2024-03-08T14:18:07;15.65;;;14.65;;
21543;SDS011;10933;50.754;11.508;2024-03-08T14:20:33;17.00;;;15.88;;
21543;SDS011;10933;50.754;11.508;2024-03-08T14:23:00;17.95;;;16.38;;
21543;SDS011;10933;50.754;11.508;2024-03-08T14:25:26;18.90;;;17.70;;
21543;SDS011;10933;50.754;11.508;2024-03-08T14:27:54;19.58;;;17.77;;